createdAt,value
2022-11-08T00:02:07.916Z,100512.00
2022-11-08T00:04:34.843Z,100512.00
2022-11-08T00:07:20.179Z,100518.00
2022-11-08T00:10:05.810Z,100505.00
2022-11-08T00:12:51.139Z,100518.00
2022-11-08T00:15:18.120Z,100513.00
2022-11-08T00:17:44.906Z,100506.00
2022-11-08T00:20:11.795Z,100506.00
2022-11-08T00:22:38.619Z,100512.00
2022-11-08T00:25:05.824Z,100518.00
2022-11-08T00:27:32.635Z,100515.00
2022-11-08T00:29:59.435Z,100504.00
2022-11-08T00:32:26.758Z,100515.00
2022-11-08T00:34:53.702Z,100503.00
2022-11-08T00:37:21.834Z,100505.00
2022-11-08T00:39:48.891Z,100510.00
2022-11-08T00:42:16.055Z,100507.00
2022-11-08T00:44:42.876Z,100500.00
2022-11-08T00:47:09.835Z,100509.00
2022-11-08T00:49:36.634Z,100505.00
2022-11-08T00:52:03.649Z,100497.00
2022-11-08T00:54:30.445Z,100507.00
2022-11-08T00:56:57.198Z,100494.00
2022-11-08T00:59:24.039Z,100511.00
2022-11-08T01:01:50.929Z,100507.00
2022-11-08T01:04:19.365Z,100505.00
2022-11-08T01:06:46.424Z,100513.00
2022-11-08T01:09:13.765Z,100509.00
2022-11-08T01:11:45.237Z,100507.00
2022-11-08T01:14:12.782Z,100517.00
2022-11-08T01:16:40.188Z,100506.00
2022-11-08T01:19:07.343Z,100503.00
2022-11-08T01:21:34.307Z,100505.00
2022-11-08T01:24:01.231Z,100512.00
2022-11-08T01:26:29.396Z,100503.00
2022-11-08T01:28:57.119Z,100498.00
2022-11-08T01:31:27.134Z,100508.00
2022-11-08T01:33:54.590Z,100508.00
2022-11-08T01:36:23.854Z,100502.00
2022-11-08T01:38:50.939Z,100500.00
2022-11-08T01:41:19.252Z,100499.00
2022-11-08T01:43:47.496Z,100496.00
2022-11-08T01:46:20.392Z,100498.00
2022-11-08T01:49:19.011Z,100496.00
2022-11-08T01:51:59.341Z,100492.00
2022-11-08T01:54:38.393Z,100494.00
2022-11-08T01:57:08.697Z,100485.00
2022-11-08T01:59:37.702Z,100488.00
2022-11-08T02:02:05.045Z,100492.00
2022-11-08T02:04:32.442Z,100499.00
2022-11-08T02:07:00.241Z,100486.00
2022-11-08T02:09:27.661Z,100487.00
2022-11-08T02:11:54.935Z,100484.00
2022-11-08T02:14:21.884Z,100487.00
2022-11-08T02:16:48.688Z,100484.00
2022-11-08T02:19:22.174Z,100491.00
2022-11-08T02:21:53.342Z,100491.00
2022-11-08T02:24:20.087Z,100492.00
2022-11-08T02:26:47.286Z,100495.00
2022-11-08T02:29:27.182Z,100500.00
2022-11-08T02:31:54.898Z,100487.00
2022-11-08T02:34:28.863Z,100488.00
2022-11-08T02:36:55.894Z,100479.00
2022-11-08T02:39:23.472Z,100485.00
2022-11-08T02:41:50.253Z,100481.00
2022-11-08T02:44:17.025Z,100482.00
2022-11-08T02:46:43.831Z,100476.00
2022-11-08T02:49:10.759Z,100479.00
2022-11-08T02:51:37.542Z,100481.00
2022-11-08T02:54:04.305Z,100476.00
2022-11-08T02:56:31.222Z,100484.00
2022-11-08T02:58:57.977Z,100476.00
2022-11-08T03:01:24.901Z,100475.00
2022-11-08T03:03:51.809Z,100483.00
2022-11-08T03:06:18.683Z,100484.00
2022-11-08T03:08:45.441Z,100471.00
2022-11-08T03:11:12.229Z,100477.00
2022-11-08T03:13:38.992Z,100482.00
2022-11-08T03:16:06.142Z,100472.00
2022-11-08T03:18:32.988Z,100476.00
2022-11-08T03:21:01.611Z,100475.00
2022-11-08T03:23:28.724Z,100478.00
2022-11-08T03:25:55.830Z,100478.00
2022-11-08T03:28:23.412Z,100480.00
2022-11-08T03:30:52.704Z,100470.00
2022-11-08T03:33:20.807Z,100476.00
2022-11-08T03:35:48.982Z,100471.00
2022-11-08T03:38:16.684Z,100468.00
2022-11-08T03:40:45.161Z,100471.00
2022-11-08T03:43:11.956Z,100467.00
2022-11-08T03:45:38.778Z,100469.00
2022-11-08T03:48:05.904Z,100477.00
2022-11-08T03:50:32.703Z,100482.00
2022-11-08T03:52:59.513Z,100476.00
2022-11-08T03:55:28.385Z,100464.00
2022-11-08T03:57:55.840Z,100469.00
2022-11-08T04:00:26.348Z,100471.00
2022-11-08T04:02:55.728Z,100464.00
2022-11-08T04:05:22.563Z,100473.00
2022-11-08T04:07:49.311Z,100466.00
2022-11-08T04:10:17.909Z,100462.00
2022-11-08T04:13:03.455Z,100470.00
2022-11-08T04:15:31.080Z,100459.00
2022-11-08T04:18:17.439Z,100461.00
2022-11-08T04:21:05.650Z,100461.00
2022-11-08T04:23:34.334Z,100451.00
2022-11-08T04:26:03.147Z,100462.00
2022-11-08T04:28:32.162Z,100450.00
2022-11-08T04:31:05.084Z,100454.00
2022-11-08T04:33:31.942Z,100446.00
2022-11-08T04:36:03.998Z,100459.00
2022-11-08T04:38:31.885Z,100452.00
2022-11-08T04:41:11.113Z,100454.00
2022-11-08T04:43:38.173Z,100456.00
2022-11-08T04:46:10.223Z,100451.00
2022-11-08T04:48:37.273Z,100448.00
2022-11-08T04:51:10.940Z,100448.00
2022-11-08T04:53:37.909Z,100451.00
2022-11-08T04:56:12.243Z,100451.00
2022-11-08T04:58:41.187Z,100445.00
2022-11-08T05:01:09.745Z,100442.00
2022-11-08T05:03:36.565Z,100439.00
2022-11-08T05:06:10.479Z,100444.00
2022-11-08T05:08:37.658Z,100445.00
2022-11-08T05:11:07.785Z,100441.00
2022-11-08T05:13:34.931Z,100448.00
2022-11-08T05:16:04.349Z,100445.00
2022-11-08T05:18:32.279Z,100433.00
2022-11-08T05:21:19.269Z,100443.00
2022-11-08T05:23:50.272Z,100443.00
2022-11-08T05:26:19.209Z,100445.00
2022-11-08T05:28:46.302Z,100441.00
2022-11-08T05:31:13.278Z,100448.00
2022-11-08T05:33:40.147Z,100442.00
2022-11-08T05:36:10.576Z,100452.00
2022-11-08T05:38:37.822Z,100446.00
2022-11-08T05:41:06.444Z,100448.00
2022-11-08T05:43:33.562Z,100442.00
2022-11-08T05:46:00.414Z,100436.00
2022-11-08T05:48:27.160Z,100441.00
2022-11-08T05:50:54.093Z,100436.00
2022-11-08T05:53:21.317Z,100434.00
2022-11-08T05:55:48.840Z,100435.00
2022-11-08T05:58:16.228Z,100436.00
2022-11-08T06:00:43.042Z,100440.00
2022-11-08T06:03:09.997Z,100428.00
2022-11-08T06:05:36.849Z,100431.00
2022-11-08T06:08:03.763Z,100439.00
2022-11-08T06:10:30.557Z,100443.00
2022-11-08T06:13:01.166Z,100433.00
2022-11-08T06:15:28.115Z,100447.00
2022-11-08T06:17:54.860Z,100451.00
2022-11-08T06:20:21.702Z,100442.00
2022-11-08T06:22:48.527Z,100443.00
2022-11-08T06:25:15.322Z,100444.00
2022-11-08T06:27:42.186Z,100446.00
2022-11-08T06:30:09.323Z,100440.00
2022-11-08T06:32:36.434Z,100439.00
2022-11-08T06:35:03.346Z,100442.00
2022-11-08T06:37:30.150Z,100446.00
2022-11-08T06:39:56.983Z,100438.00
2022-11-08T06:42:24.184Z,100437.00
2022-11-08T06:44:50.968Z,100440.00
2022-11-08T06:47:18.273Z,100430.00
2022-11-08T06:49:45.426Z,100430.00
2022-11-08T06:52:12.201Z,100429.00
2022-11-08T06:54:38.962Z,100431.00
2022-11-08T06:57:05.749Z,100427.00
2022-11-08T06:59:32.489Z,100435.00
2022-11-08T07:01:59.623Z,100429.00
2022-11-08T07:04:26.405Z,100422.00
2022-11-08T07:06:53.180Z,100436.00
2022-11-08T07:09:19.976Z,100438.00
2022-11-08T07:11:47.162Z,100432.00
2022-11-08T07:14:14.004Z,100425.00
2022-11-08T07:16:42.020Z,100427.00
2022-11-08T07:19:08.830Z,100438.00
2022-11-08T07:21:35.603Z,100445.00
2022-11-08T07:24:03.047Z,100434.00
2022-11-08T07:26:29.808Z,100437.00
2022-11-08T07:28:56.589Z,100440.00
2022-11-08T07:31:23.968Z,100439.00
2022-11-08T07:33:50.896Z,100443.00
2022-11-08T07:36:17.753Z,100441.00
2022-11-08T07:38:44.579Z,100442.00
2022-11-08T07:41:11.370Z,100433.00
2022-11-08T07:43:38.142Z,100429.00
2022-11-08T07:46:04.913Z,100433.00
2022-11-08T07:48:31.770Z,100424.00
2022-11-08T07:50:58.545Z,100427.00
2022-11-08T07:53:25.330Z,100419.00
2022-11-08T07:55:52.292Z,100415.00
2022-11-08T07:58:19.050Z,100427.00
2022-11-08T08:00:45.987Z,100427.00
2022-11-08T08:03:14.061Z,100427.00
2022-11-08T08:05:43.111Z,100433.00
2022-11-08T08:08:11.275Z,100435.00
2022-11-08T08:10:38.559Z,100445.00
2022-11-08T08:13:06.362Z,100434.00
2022-11-08T08:15:33.309Z,100434.00
2022-11-08T08:18:01.787Z,100428.00
2022-11-08T08:20:29.687Z,100425.00
2022-11-08T08:22:56.648Z,100424.00
2022-11-08T08:25:23.683Z,100433.00
2022-11-08T08:27:52.122Z,100429.00
2022-11-08T08:30:19.249Z,100422.00
2022-11-08T08:32:53.446Z,100417.00
2022-11-08T08:35:29.634Z,100419.00
2022-11-08T08:38:00.509Z,100424.00
2022-11-08T08:40:28.103Z,100428.00
2022-11-08T08:42:55.071Z,100429.00
2022-11-08T08:45:21.854Z,100417.00
2022-11-08T08:47:53.562Z,100426.00
2022-11-08T08:50:21.028Z,100414.00
2022-11-08T08:52:47.950Z,100413.00
2022-11-08T08:55:15.100Z,100411.00
2022-11-08T08:57:46.500Z,100409.00
2022-11-08T09:03:06.111Z,100412.00
2022-11-08T09:05:33.738Z,100412.00
2022-11-08T09:08:00.713Z,100412.00
2022-11-08T09:10:28.001Z,100401.00
2022-11-08T09:12:54.788Z,100408.00
2022-11-08T09:15:22.147Z,100395.00
2022-11-08T09:17:48.945Z,100392.00
2022-11-08T09:20:16.319Z,100390.00
2022-11-08T09:22:43.345Z,100403.00
2022-11-08T09:25:10.527Z,100397.00
2022-11-08T09:27:37.335Z,100407.00
2022-11-08T09:30:05.177Z,100410.00
2022-11-08T09:32:59.244Z,100407.00
2022-11-08T09:35:19.190Z,100400.00
2022-11-08T09:37:49.621Z,100393.00
2022-11-08T09:40:48.847Z,100390.00
2022-11-08T09:43:38.722Z,100391.00
2022-11-08T09:46:10.474Z,100397.00
2022-11-08T09:48:42.797Z,100394.00
2022-11-08T09:51:18.562Z,100382.00
2022-11-08T09:53:57.556Z,100390.00
2022-11-08T09:56:31.443Z,100400.00
2022-11-08T09:59:18.423Z,100389.00
2022-11-08T10:01:45.285Z,100391.00
2022-11-08T10:04:24.473Z,100382.00
2022-11-08T10:07:02.693Z,100380.00
2022-11-08T10:09:54.707Z,100383.00
2022-11-08T10:12:51.868Z,100387.00
2022-11-08T10:15:42.295Z,100384.00
2022-11-08T10:18:46.646Z,100372.00
2022-11-08T10:21:19.602Z,100385.00
2022-11-08T10:24:08.700Z,100381.00
2022-11-08T10:26:39.597Z,100366.00
2022-11-08T10:29:19.179Z,100378.00
2022-11-08T10:31:48.309Z,100368.00
2022-11-08T10:34:25.388Z,100378.00
2022-11-08T10:36:58.935Z,100359.00
2022-11-08T10:39:27.992Z,100347.00
2022-11-08T10:42:00.388Z,100350.00
2022-11-08T10:44:28.236Z,100345.00
2022-11-08T10:46:58.378Z,100358.00
2022-11-08T10:49:38.671Z,100332.00
2022-11-08T10:52:11.528Z,100318.00
2022-11-08T10:54:42.659Z,100318.00
2022-11-08T10:57:11.213Z,100323.00
2022-11-08T10:59:38.123Z,100301.00
2022-11-08T11:02:20.579Z,100316.00
2022-11-08T11:04:47.823Z,100308.00
2022-11-08T11:07:30.101Z,100320.00
2022-11-08T11:09:56.902Z,100318.00
2022-11-08T11:12:23.708Z,100305.00
2022-11-08T11:14:57.999Z,100296.00
2022-11-08T11:17:32.817Z,100303.00
2022-11-08T11:20:02.569Z,100300.00
2022-11-08T11:22:33.508Z,100299.00
2022-11-08T11:25:08.187Z,100299.00
2022-11-08T11:27:36.855Z,100298.00
2022-11-08T11:30:12.655Z,100288.00
2022-11-08T11:32:40.013Z,100289.00
2022-11-08T11:35:13.034Z,100274.00
2022-11-08T11:37:48.492Z,100284.00
2022-11-08T11:40:43.852Z,100278.00
2022-11-08T11:43:36.118Z,100272.00
2022-11-08T11:46:21.368Z,100262.00
2022-11-08T11:49:19.424Z,100284.00
2022-11-08T11:51:46.218Z,100266.00
2022-11-08T11:54:16.346Z,100267.00
2022-11-08T11:56:54.086Z,100261.00
2022-11-08T11:59:39.320Z,100272.00
2022-11-08T12:02:36.711Z,100277.00
2022-11-08T12:05:31.129Z,100260.00
2022-11-08T12:08:16.494Z,100252.00
2022-11-08T12:10:55.505Z,100244.00
2022-11-08T12:13:28.253Z,100242.00
2022-11-08T12:16:01.124Z,100247.00
2022-11-08T12:18:55.311Z,100229.00
2022-11-08T12:21:27.977Z,100224.00
2022-11-08T12:24:07.072Z,100231.00
2022-11-08T12:26:56.545Z,100238.00
2022-11-08T12:29:46.597Z,100240.00
2022-11-08T12:33:05.967Z,100227.00
2022-11-08T12:35:42.029Z,100222.00
2022-11-08T12:38:24.775Z,100228.00
2022-11-08T12:41:20.701Z,100218.00
2022-11-08T12:44:09.932Z,100219.00
2022-11-08T12:47:14.146Z,100214.00
2022-11-08T12:50:10.259Z,100187.00
2022-11-08T12:52:37.008Z,100198.00
2022-11-08T12:55:07.486Z,100185.00
2022-11-08T12:57:35.126Z,100195.00
2022-11-08T13:00:06.685Z,100195.00
2022-11-08T13:02:37.612Z,100204.00
2022-11-08T13:05:15.866Z,100199.00
2022-11-08T13:07:42.659Z,100187.00
2022-11-08T13:10:23.052Z,100185.00
2022-11-08T13:13:18.884Z,100183.00
2022-11-08T13:16:20.715Z,100186.00
2022-11-08T13:18:54.419Z,100192.00
2022-11-08T13:21:30.594Z,100186.00
2022-11-08T13:24:24.339Z,100174.00
2022-11-08T13:27:13.520Z,100179.00
2022-11-08T13:29:40.306Z,100168.00
2022-11-08T13:32:12.104Z,100173.00
2022-11-08T13:35:03.514Z,100164.00
2022-11-08T13:37:39.564Z,100177.00
2022-11-08T13:40:12.867Z,100171.00
2022-11-08T13:42:49.734Z,100164.00
2022-11-08T13:45:16.497Z,100163.00
2022-11-08T13:47:43.176Z,100165.00
2022-11-08T13:50:38.870Z,100156.00
2022-11-08T13:53:23.938Z,100157.00
2022-11-08T13:55:55.365Z,100153.00
2022-11-08T13:58:43.330Z,100155.00
2022-11-08T14:01:19.436Z,100152.00
2022-11-08T14:03:46.352Z,100143.00
2022-11-08T14:06:45.840Z,100137.00
2022-11-08T14:09:27.013Z,100132.00
2022-11-08T14:12:13.259Z,100131.00
2022-11-08T14:15:07.477Z,100131.00
2022-11-08T14:17:59.884Z,100123.00
2022-11-08T14:20:41.467Z,100114.00
2022-11-08T14:23:20.786Z,100111.00
2022-11-08T14:26:12.414Z,100106.00
2022-11-08T14:28:41.991Z,100111.00
2022-11-08T14:31:42.185Z,100124.00
2022-11-08T14:34:27.523Z,100115.00
2022-11-08T14:36:56.109Z,100107.00
2022-11-08T14:39:29.996Z,100102.00
2022-11-08T14:41:59.799Z,100104.00
2022-11-08T14:44:27.427Z,100110.00
2022-11-08T14:46:54.705Z,100114.00
2022-11-08T14:49:37.883Z,100111.00
2022-11-08T14:52:10.052Z,100101.00
2022-11-08T14:54:40.470Z,100105.00
2022-11-08T14:57:30.530Z,100102.00
2022-11-08T14:59:58.027Z,100108.00
2022-11-08T15:03:11.572Z,100110.00
2022-11-08T15:05:53.667Z,100117.00
2022-11-08T15:08:43.381Z,100118.00
2022-11-08T15:11:28.338Z,100102.00
2022-11-08T15:14:02.992Z,100110.00
2022-11-08T15:17:03.432Z,100122.00
2022-11-08T15:19:44.412Z,100110.00
2022-11-08T15:22:35.285Z,100117.00
2022-11-08T15:25:14.470Z,100102.00
2022-11-08T15:27:48.293Z,100108.00
2022-11-08T15:30:20.571Z,100106.00
2022-11-08T15:32:47.626Z,100105.00
2022-11-08T15:35:28.264Z,100106.00
2022-11-08T15:38:46.403Z,100105.00
2022-11-08T15:41:37.307Z,100109.00
2022-11-08T15:44:13.769Z,100107.00
2022-11-08T15:46:41.146Z,100095.00
2022-11-08T15:49:44.801Z,100091.00
2022-11-08T15:52:12.664Z,100083.00
2022-11-08T15:54:39.390Z,100091.00
2022-11-08T15:57:06.297Z,100076.00
2022-11-08T15:59:36.098Z,100084.00
2022-11-08T16:02:03.086Z,100082.00
2022-11-08T16:04:30.076Z,100077.00
2022-11-08T16:06:57.316Z,100070.00
2022-11-08T16:09:24.529Z,100065.00
2022-11-08T16:11:51.628Z,100073.00
2022-11-08T16:14:22.710Z,100068.00
2022-11-08T16:16:51.700Z,100069.00
2022-11-08T16:19:22.749Z,100068.00
2022-11-08T16:21:50.446Z,100077.00
2022-11-08T16:24:21.330Z,100089.00
2022-11-08T16:26:48.543Z,100086.00
2022-11-08T16:29:21.813Z,100080.00
2022-11-08T16:31:50.523Z,100081.00
2022-11-08T16:34:17.863Z,100083.00
2022-11-08T16:36:46.571Z,100086.00
2022-11-08T16:39:18.982Z,100088.00
2022-11-08T16:41:45.844Z,100085.00
2022-11-08T16:44:13.387Z,100085.00
2022-11-08T16:46:41.182Z,100083.00
2022-11-08T16:49:16.949Z,100084.00
2022-11-08T16:51:43.862Z,100083.00
2022-11-08T16:54:30.251Z,100059.00
2022-11-08T16:57:20.555Z,100066.00
2022-11-08T16:59:44.486Z,100082.00
2022-11-08T17:02:30.765Z,100088.00
2022-11-08T17:04:58.592Z,100097.00
2022-11-08T17:07:26.769Z,100095.00
2022-11-08T17:09:53.837Z,100104.00
2022-11-08T17:12:21.253Z,100099.00
2022-11-08T17:14:48.040Z,100087.00
2022-11-08T17:17:15.481Z,100100.00
2022-11-08T17:19:42.471Z,100088.00
2022-11-08T17:22:09.281Z,100116.00
2022-11-08T17:24:36.125Z,100118.00
2022-11-08T17:27:03.005Z,100112.00
2022-11-08T17:29:29.789Z,100133.00
2022-11-08T17:31:56.578Z,100127.00
2022-11-08T17:34:23.336Z,100126.00
2022-11-08T17:36:52.689Z,100135.00
2022-11-08T17:39:19.549Z,100143.00
2022-11-08T17:41:46.352Z,100139.00
2022-11-08T17:44:14.298Z,100141.00
2022-11-08T17:46:41.101Z,100132.00
2022-11-08T17:49:08.822Z,100139.00
2022-11-08T17:51:36.609Z,100140.00
2022-11-08T17:54:03.642Z,100138.00
2022-11-08T17:56:32.119Z,100133.00
2022-11-08T17:58:58.903Z,100140.00
2022-11-08T18:01:25.710Z,100122.00
2022-11-08T18:03:52.572Z,100140.00
2022-11-08T18:06:19.495Z,100132.00
2022-11-08T18:08:46.310Z,100126.00
2022-11-08T18:11:13.189Z,100124.00
2022-11-08T18:13:39.987Z,100119.00
2022-11-08T18:16:07.823Z,100126.00
2022-11-08T18:18:39.913Z,100133.00
2022-11-08T18:21:07.789Z,100119.00
2022-11-08T18:23:34.793Z,100134.00
2022-11-08T18:26:01.729Z,100128.00
2022-11-08T18:28:28.521Z,100127.00
2022-11-08T18:31:07.566Z,100135.00
2022-11-08T18:33:35.827Z,100130.00
2022-11-08T18:36:09.254Z,100137.00
2022-11-08T18:38:40.952Z,100132.00
2022-11-08T18:41:08.887Z,100123.00
2022-11-08T18:43:35.697Z,100128.00
2022-11-08T18:46:04.336Z,100126.00
2022-11-08T18:48:32.386Z,100113.00
2022-11-08T18:50:59.144Z,100113.00
2022-11-08T18:53:25.958Z,100121.00
2022-11-08T18:55:52.918Z,100121.00
2022-11-08T18:58:19.768Z,100108.00
2022-11-08T19:00:46.683Z,100115.00
2022-11-08T19:03:13.501Z,100108.00
2022-11-08T19:05:43.358Z,100119.00
2022-11-08T19:08:10.167Z,100118.00
2022-11-08T19:10:36.965Z,100111.00
2022-11-08T19:13:03.701Z,100108.00
2022-11-08T19:15:30.453Z,100114.00
2022-11-08T19:17:57.675Z,100110.00
2022-11-08T19:20:25.411Z,100108.00
2022-11-08T19:22:55.590Z,100107.00
2022-11-08T19:25:22.422Z,100101.00
2022-11-08T19:27:49.211Z,100102.00
2022-11-08T19:30:15.970Z,100110.00
2022-11-08T19:32:42.727Z,100111.00
2022-11-08T19:35:09.735Z,100115.00
2022-11-08T19:37:36.494Z,100129.00
2022-11-08T19:40:03.882Z,100139.00
2022-11-08T19:42:31.059Z,100130.00
2022-11-08T19:44:57.921Z,100130.00
2022-11-08T19:47:24.735Z,100128.00
2022-11-08T19:49:51.527Z,100140.00
2022-11-08T19:52:18.481Z,100147.00
2022-11-08T19:54:45.874Z,100151.00
2022-11-08T19:57:13.630Z,100164.00
2022-11-08T19:59:40.367Z,100186.00
2022-11-08T20:02:07.213Z,100179.00
2022-11-08T20:04:34.095Z,100165.00
2022-11-08T20:07:01.027Z,100187.00
2022-11-08T20:09:30.793Z,100181.00
2022-11-08T20:11:58.181Z,100175.00
2022-11-08T20:14:25.139Z,100174.00
2022-11-08T20:16:54.012Z,100185.00
2022-11-08T20:19:21.445Z,100182.00
2022-11-08T20:21:48.595Z,100175.00
2022-11-08T20:24:15.969Z,100183.00
2022-11-08T20:26:43.229Z,100184.00
2022-11-08T20:29:22.132Z,100193.00
2022-11-08T20:32:00.445Z,100190.00
2022-11-08T20:34:27.234Z,100175.00
2022-11-08T20:36:54.130Z,100170.00
2022-11-08T20:39:21.236Z,100181.00
2022-11-08T20:41:48.457Z,100185.00
2022-11-08T20:44:15.742Z,100188.00
2022-11-08T20:46:42.603Z,100186.00
2022-11-08T20:49:09.583Z,100189.00
2022-11-08T20:51:36.820Z,100181.00
2022-11-08T20:54:04.962Z,100179.00
2022-11-08T20:56:31.848Z,100177.00
2022-11-08T20:58:58.683Z,100175.00
2022-11-08T21:01:30.365Z,100177.00
2022-11-08T21:03:58.628Z,100174.00
2022-11-08T21:06:26.750Z,100180.00
2022-11-08T21:08:59.979Z,100183.00
2022-11-08T21:11:30.799Z,100176.00
2022-11-08T21:13:57.985Z,100183.00
2022-11-08T21:16:30.646Z,100174.00
2022-11-08T21:19:00.118Z,100180.00
2022-11-08T21:21:27.124Z,100193.00
2022-11-08T21:23:54.646Z,100184.00
2022-11-08T21:26:22.394Z,100170.00
2022-11-08T21:28:49.190Z,100189.00
2022-11-08T21:31:16.279Z,100191.00
2022-11-08T21:33:43.090Z,100188.00
2022-11-08T21:36:10.379Z,100182.00
2022-11-08T21:38:38.527Z,100191.00
2022-11-08T21:41:09.344Z,100188.00
2022-11-08T21:43:44.391Z,100177.00
2022-11-08T21:46:22.807Z,100185.00
2022-11-08T21:48:57.390Z,100178.00
2022-11-08T21:51:26.099Z,100178.00
2022-11-08T21:53:55.298Z,100180.00
2022-11-08T21:56:24.547Z,100180.00
2022-11-08T21:58:52.006Z,100170.00
2022-11-08T22:01:19.449Z,100177.00
2022-11-08T22:03:46.872Z,100178.00
2022-11-08T22:06:13.910Z,100178.00
2022-11-08T22:08:40.793Z,100178.00
2022-11-08T22:11:11.699Z,100173.00
2022-11-08T22:13:38.514Z,100173.00
2022-11-08T22:16:05.821Z,100185.00
2022-11-08T22:21:37.799Z,100174.00
2022-11-08T22:24:14.605Z,100170.00
2022-11-08T22:26:41.747Z,100175.00
2022-11-08T22:29:08.693Z,100168.00
2022-11-08T22:31:35.775Z,100170.00
2022-11-08T22:34:02.918Z,100182.00
2022-11-08T22:36:29.732Z,100174.00
2022-11-08T22:38:56.616Z,100164.00
2022-11-08T22:41:24.085Z,100180.00
2022-11-08T22:43:51.226Z,100178.00
2022-11-08T22:46:18.297Z,100182.00
2022-11-08T22:48:45.612Z,100169.00
2022-11-08T22:51:12.919Z,100172.00
2022-11-08T22:53:39.982Z,100163.00
2022-11-08T22:56:11.279Z,100178.00
2022-11-08T22:58:38.961Z,100165.00
2022-11-08T23:01:07.133Z,100171.00
2022-11-08T23:03:33.868Z,100163.00
2022-11-08T23:06:00.676Z,100155.00
2022-11-08T23:08:27.476Z,100161.00
2022-11-08T23:11:12.791Z,100163.00
2022-11-08T23:13:58.631Z,100151.00
2022-11-08T23:16:37.879Z,100154.00
2022-11-08T23:19:51.866Z,100150.00
2022-11-08T23:22:45.130Z,100156.00
2022-11-08T23:25:11.892Z,100156.00
2022-11-08T23:27:57.114Z,100144.00
2022-11-08T23:30:42.061Z,100146.00
2022-11-08T23:33:08.914Z,100148.00
2022-11-08T23:35:35.829Z,100152.00
2022-11-08T23:38:02.696Z,100147.00
2022-11-08T23:40:47.993Z,100152.00
2022-11-08T23:43:52.415Z,100151.00
2022-11-08T23:46:19.290Z,100151.00
2022-11-08T23:48:46.042Z,100153.00
2022-11-08T23:51:12.802Z,100144.00
2022-11-08T23:53:40.019Z,100152.00
2022-11-08T23:56:07.122Z,100145.00
2022-11-08T23:58:33.936Z,100131.00
